Time;durP1;ratioP1;P1;durP2;ratioP2;P2;SDS_P1;SDS_P2;PMS_P1;PMS_P2;Temp;Humidity;BMP_temperature;BMP_pressure;BME280_temperature;BME280_humidity;BME280_pressure;Samples;Min_cycle;Max_cycle;Signal;HPM_P1;HPM_P2
2024/01/25 00:01:45;;;;;;;10.50;6.63;;;9.80;83.90;;;;;;6150109;23;20010;-79
2024/01/25 00:04:11;;;;;;;11.80;6.45;;;9.80;83.70;;;;;;6125642;23;20431;-80
2024/01/25 00:06:37;;;;;;;12.32;6.30;;;9.80;83.60;;;;;;6124946;23;20477;-80
2024/01/25 00:09:04;;;;;;;8.10;6.40;;;9.80;83.50;;;;;;6125121;23;20017;-80
2024/01/25 00:11:31;;;;;;;11.48;6.47;;;9.80;83.60;;;;;;6151914;23;20679;-81
2024/01/25 00:13:58;;;;;;;10.52;6.20;;;9.80;83.60;;;;;;6152434;23;20017;-81
2024/01/25 00:16:24;;;;;;;11.13;6.05;;;9.80;83.60;;;;;;6154343;23;20356;-81
2024/01/25 00:18:50;;;;;;;10.90;6.78;;;9.80;83.60;;;;;;6103529;23;20021;-81
2024/01/25 00:21:17;;;;;;;11.20;6.75;;;9.80;83.50;;;;;;6152802;23;20021;-81
2024/01/25 00:23:42;;;;;;;10.50;6.63;;;9.80;83.60;;;;;;6128173;23;20018;-81
2024/01/25 00:26:09;;;;;;;11.52;6.78;;;9.80;83.50;;;;;;6128022;23;20021;-81
2024/01/25 00:28:35;;;;;;;11.48;6.90;;;9.80;83.40;;;;;;6154872;23;20097;-81
2024/01/25 00:31:01;;;;;;;10.88;6.53;;;9.80;83.40;;;;;;6128004;23;20044;-81
2024/01/25 00:33:27;;;;;;;10.40;6.45;;;9.90;83.30;;;;;;6103763;23;20565;-81
2024/01/25 00:35:53;;;;;;;11.13;7.13;;;9.80;83.30;;;;;;6152675;23;20019;-81
2024/01/25 00:38:19;;;;;;;10.85;6.70;;;9.80;84.00;;;;;;6127972;23;20383;-81
2024/01/25 00:40:45;;;;;;;9.68;6.10;;;9.90;83.40;;;;;;6150866;23;20032;-82
2024/01/25 00:43:12;;;;;;;9.90;6.35;;;9.80;83.30;;;;;;6127250;23;20081;-82
2024/01/25 00:45:38;;;;;;;10.05;6.60;;;9.90;83.40;;;;;;6127037;23;20024;-81
2024/01/25 00:48:04;;;;;;;9.75;6.20;;;9.90;83.20;;;;;;6126604;23;20031;-81
2024/01/25 00:50:31;;;;;;;9.43;6.10;;;9.90;83.20;;;;;;6102236;23;20018;-81
2024/01/25 00:52:57;;;;;;;10.13;6.50;;;9.90;83.10;;;;;;6153017;23;20092;-81
2024/01/25 00:55:23;;;;;;;10.07;5.78;;;9.90;82.90;;;;;;6153118;23;20010;-81
2024/01/25 00:57:51;;;;;;;8.18;5.32;;;9.90;82.90;;;;;;6102142;23;20100;-81
2024/01/25 01:00:18;;;;;;;10.75;5.88;;;9.90;82.80;;;;;;6102138;23;20025;-82
2024/01/25 01:02:45;;;;;;;9.48;6.38;;;9.90;82.80;;;;;;6102011;23;20108;-80
2024/01/25 01:05:12;;;;;;;10.98;5.90;;;9.90;82.80;;;;;;6126096;23;20017;-82
2024/01/25 01:07:42;;;;;;;10.07;6.25;;;9.90;82.70;;;;;;6103257;23;20468;-81
2024/01/25 01:10:09;;;;;;;10.13;6.00;;;9.90;82.70;;;;;;6154139;23;20025;-81
2024/01/25 01:12:35;;;;;;;10.35;6.25;;;9.90;82.80;;;;;;6102911;23;20104;-81
2024/01/25 01:15:02;;;;;;;8.98;5.63;;;9.80;82.50;;;;;;6103097;23;20484;-82
2024/01/25 01:17:29;;;;;;;9.13;5.70;;;9.90;82.40;;;;;;6150802;23;20064;-80
2024/01/25 01:19:55;;;;;;;7.55;5.47;;;9.90;82.50;;;;;;6151356;23;20005;-82
2024/01/25 01:22:21;;;;;;;9.05;5.65;;;9.90;82.50;;;;;;6151461;23;20100;-84
2024/01/25 01:24:47;;;;;;;9.13;5.55;;;9.90;82.40;;;;;;6101854;23;20037;-85
2024/01/25 01:27:13;;;;;;;9.23;5.72;;;9.90;82.40;;;;;;6101054;23;20018;-81
2024/01/25 01:29:41;;;;;;;7.50;5.53;;;9.90;82.40;;;;;;6101595;23;20071;-81
2024/01/25 01:32:07;;;;;;;10.52;6.15;;;9.90;82.40;;;;;;6152076;23;20465;-82
2024/01/25 01:34:33;;;;;;;8.60;5.68;;;9.90;82.60;;;;;;6102587;23;20493;-85
2024/01/25 01:36:59;;;;;;;9.65;5.65;;;9.90;82.60;;;;;;6126420;23;20040;-84
2024/01/25 01:39:25;;;;;;;8.13;5.60;;;9.90;82.50;;;;;;6126256;23;20041;-84
2024/01/25 01:41:51;;;;;;;9.55;5.60;;;9.90;82.30;;;;;;6125828;23;20121;-79
2024/01/25 01:44:17;;;;;;;8.05;5.10;;;9.90;82.30;;;;;;6126830;23;20106;-79
2024/01/25 01:46:43;;;;;;;7.78;5.28;;;9.90;82.20;;;;;;6078125;23;20373;-78
2024/01/25 01:49:14;;;;;;;8.13;5.80;;;9.90;82.20;;;;;;6152000;23;20132;-80
2024/01/25 01:51:43;;;;;;;7.72;5.25;;;9.90;82.30;;;;;;6126053;23;20058;-79
2024/01/25 01:54:10;;;;;;;10.45;5.45;;;9.90;82.10;;;;;;6151905;23;20029;-82
2024/01/25 01:56:36;;;;;;;7.80;5.60;;;9.90;82.20;;;;;;6152784;23;20026;-80
2024/01/25 01:59:05;;;;;;;10.60;5.78;;;9.90;82.30;;;;;;6151572;23;20725;-80
2024/01/25 02:01:31;;;;;;;8.82;5.25;;;9.90;82.20;;;;;;6125784;23;20016;-82
2024/01/25 02:03:57;;;;;;;9.35;5.10;;;9.90;82.30;;;;;;6150543;23;20029;-79
2024/01/25 02:06:24;;;;;;;9.43;5.63;;;9.90;82.30;;;;;;6077253;23;20069;-80
2024/01/25 02:08:52;;;;;;;7.35;5.55;;;9.90;82.30;;;;;;6152071;23;20021;-81
2024/01/25 02:11:20;;;;;;;8.30;5.15;;;9.90;82.10;;;;;;6101153;23;20017;-80
2024/01/25 02:13:47;;;;;;;9.18;5.68;;;9.90;82.10;;;;;;6151260;23;20582;-80
2024/01/25 02:16:14;;;;;;;10.18;5.53;;;9.90;82.00;;;;;;6152203;23;20032;-80
2024/01/25 02:18:41;;;;;;;8.00;5.03;;;9.90;81.90;;;;;;6151748;23;20017;-80
2024/01/25 02:21:07;;;;;;;7.95;5.28;;;9.90;81.90;;;;;;6126789;23;20021;-79
2024/01/25 02:23:33;;;;;;;9.15;4.95;;;9.90;81.80;;;;;;6153146;23;20014;-81
2024/01/25 02:25:59;;;;;;;9.18;5.82;;;9.90;81.70;;;;;;6126289;23;20032;-80
2024/01/25 02:28:25;;;;;;;8.20;5.25;;;9.90;81.70;;;;;;6101968;23;20084;-79
2024/01/25 02:30:52;;;;;;;8.25;5.22;;;9.90;81.70;;;;;;6124787;23;20014;-80
2024/01/25 02:33:18;;;;;;;8.13;5.90;;;9.90;81.80;;;;;;6151379;23;20108;-80
2024/01/25 02:35:44;;;;;;;8.70;5.85;;;9.90;81.50;;;;;;6151193;23;20017;-79
2024/01/25 02:38:10;;;;;;;9.07;5.38;;;9.90;81.40;;;;;;6124778;23;20017;-79
2024/01/25 02:40:36;;;;;;;7.88;5.50;;;9.90;81.40;;;;;;6125522;23;20014;-79
2024/01/25 02:43:02;;;;;;;8.23;5.60;;;9.90;81.40;;;;;;6149090;23;20027;-78
2024/01/25 02:45:28;;;;;;;8.43;5.10;;;9.90;81.30;;;;;;6149621;23;20021;-79
2024/01/25 02:47:54;;;;;;;9.05;5.57;;;9.90;81.40;;;;;;6150882;23;20084;-82
2024/01/25 02:50:20;;;;;;;8.18;5.30;;;9.90;81.10;;;;;;6152631;23;20358;-82
2024/01/25 02:52:46;;;;;;;7.50;4.75;;;9.90;81.20;;;;;;6129522;23;20111;-81
2024/01/25 02:55:12;;;;;;;7.82;5.18;;;9.90;81.20;;;;;;6102405;23;20060;-82
2024/01/25 02:57:38;;;;;;;8.77;5.00;;;9.90;81.40;;;;;;6125706;23;20108;-83
2024/01/25 03:00:05;;;;;;;7.38;4.85;;;9.90;81.20;;;;;;6126807;23;20022;-81
2024/01/25 03:02:31;;;;;;;5.85;4.72;;;9.90;81.30;;;;;;6150903;23;20115;-81
2024/01/25 03:04:57;;;;;;;9.85;4.97;;;9.90;81.20;;;;;;6126663;23;20013;-81
2024/01/25 03:07:23;;;;;;;8.98;5.40;;;9.90;81.20;;;;;;6153229;23;20013;-81
2024/01/25 03:09:49;;;;;;;7.32;5.38;;;9.90;81.10;;;;;;6151333;23;20033;-81
2024/01/25 03:12:15;;;;;;;6.82;4.72;;;9.90;81.10;;;;;;6126802;23;20464;-81
2024/01/25 03:14:41;;;;;;;8.73;5.40;;;9.90;81.10;;;;;;6101933;23;20466;-79
2024/01/25 03:17:07;;;;;;;6.13;4.63;;;9.90;81.20;;;;;;6125156;23;20014;-80
2024/01/25 03:19:33;;;;;;;6.53;5.00;;;9.90;81.20;;;;;;6126658;23;20562;-80
2024/01/25 03:22:01;;;;;;;9.32;5.15;;;9.90;81.10;;;;;;6152811;23;20021;-81
2024/01/25 03:24:27;;;;;;;7.30;4.70;;;9.90;80.90;;;;;;6152663;23;20481;-80
2024/01/25 03:26:53;;;;;;;8.38;5.25;;;9.90;81.10;;;;;;6151125;23;20044;-80
2024/01/25 03:29:20;;;;;;;7.40;4.90;;;9.90;80.90;;;;;;6151038;23;20021;-81
2024/01/25 03:31:46;;;;;;;8.85;4.47;;;9.90;80.90;;;;;;6126281;23;20472;-79
2024/01/25 03:34:12;;;;;;;7.35;5.05;;;9.90;80.80;;;;;;6126907;23;20014;-80
2024/01/25 03:36:39;;;;;;;6.85;4.80;;;9.90;80.70;;;;;;6126824;23;20021;-81
2024/01/25 03:39:07;;;;;;;6.43;4.43;;;9.90;80.60;;;;;;6152404;23;20149;-79
2024/01/25 03:41:33;;;;;;;6.90;4.53;;;9.90;80.60;;;;;;6152232;23;20557;-79
2024/01/25 03:43:59;;;;;;;6.93;4.60;;;9.90;80.50;;;;;;6150091;23;20064;-80
2024/01/25 03:46:25;;;;;;;8.13;5.03;;;9.90;80.40;;;;;;6128044;23;20013;-81
2024/01/25 03:48:51;;;;;;;6.30;4.90;;;9.90;80.40;;;;;;6127844;23;20029;-81
2024/01/25 03:51:17;;;;;;;7.80;4.80;;;9.90;80.30;;;;;;6127826;23;20018;-80
2024/01/25 03:53:43;;;;;;;6.40;4.57;;;9.90;80.20;;;;;;6103477;23;20043;-80
2024/01/25 03:56:22;;;;;;;8.82;4.55;;;9.90;80.40;;;;;;6127999;23;20021;-80
2024/01/25 03:58:49;;;;;;;6.80;4.45;;;9.90;80.40;;;;;;6128544;23;20005;-80
2024/01/25 04:01:15;;;;;;;6.57;4.53;;;9.90;80.30;;;;;;6104958;23;20009;-80
2024/01/25 04:03:41;;;;;;;5.75;4.38;;;9.90;80.30;;;;;;6128235;23;20025;-85
2024/01/25 04:06:07;;;;;;;6.78;4.35;;;9.90;80.40;;;;;;6153785;23;20013;-80
2024/01/25 04:08:33;;;;;;;7.18;4.40;;;9.90;80.50;;;;;;6127972;23;20041;-80
2024/01/25 04:10:59;;;;;;;6.47;4.32;;;9.90;80.40;;;;;;6152386;23;20198;-82
2024/01/25 04:13:25;;;;;;;6.75;4.00;;;9.90;80.80;;;;;;6154908;23;20013;-80
2024/01/25 04:15:51;;;;;;;8.00;4.85;;;9.90;80.00;;;;;;6152340;23;20131;-80
2024/01/25 04:18:17;;;;;;;6.00;4.03;;;9.90;79.90;;;;;;6154884;23;20017;-85
2024/01/25 04:20:44;;;;;;;5.05;4.22;;;9.90;79.80;;;;;;6103836;23;20047;-83
2024/01/25 04:23:10;;;;;;;6.13;4.28;;;9.90;80.20;;;;;;6103609;23;20017;-84
2024/01/25 04:25:36;;;;;;;6.20;4.32;;;9.90;79.50;;;;;;6129444;23;20021;-85
2024/01/25 04:28:02;;;;;;;6.28;4.82;;;9.90;79.50;;;;;;6129768;23;20113;-84
2024/01/25 04:30:29;;;;;;;5.13;3.88;;;9.90;79.30;;;;;;6154307;23;20021;-85
2024/01/25 04:32:55;;;;;;;7.13;4.72;;;9.90;79.30;;;;;;6152687;23;20021;-86
2024/01/25 04:35:21;;;;;;;7.10;4.65;;;9.90;79.20;;;;;;6154444;23;20017;-87
2024/01/25 04:37:47;;;;;;;6.85;4.80;;;9.90;79.10;;;;;;6079373;23;20100;-80
2024/01/25 04:40:13;;;;;;;6.50;4.55;;;9.90;78.90;;;;;;6154506;23;20101;-81
2024/01/25 04:42:39;;;;;;;6.97;4.72;;;9.90;78.90;;;;;;6127396;23;20468;-82
2024/01/25 04:45:06;;;;;;;6.22;4.65;;;9.90;79.10;;;;;;6153998;23;20075;-81
2024/01/25 04:47:32;;;;;;;7.57;4.70;;;9.80;79.00;;;;;;6128259;23;20076;-79
2024/01/25 04:49:58;;;;;;;6.70;4.70;;;9.90;79.20;;;;;;6153360;23;20079;-81
2024/01/25 04:52:24;;;;;;;6.45;4.68;;;9.90;79.30;;;;;;6080222;23;20013;-80
2024/01/25 04:54:50;;;;;;;6.38;4.90;;;9.90;79.30;;;;;;6152919;23;20041;-85
2024/01/25 04:57:16;;;;;;;7.10;4.30;;;9.90;79.30;;;;;;6079740;23;20025;-81
2024/01/25 04:59:43;;;;;;;7.68;4.40;;;9.80;79.30;;;;;;6126954;23;20021;-80
2024/01/25 05:02:09;;;;;;;8.20;5.00;;;9.80;79.30;;;;;;6154249;23;20578;-80
2024/01/25 05:04:35;;;;;;;7.63;5.22;;;9.90;79.50;;;;;;6153055;23;20013;-80
2024/01/25 05:07:01;;;;;;;6.50;4.40;;;9.80;80.20;;;;;;6152513;23;20048;-80
2024/01/25 05:09:27;;;;;;;7.82;4.85;;;9.80;80.40;;;;;;6152734;23;20021;-80
2024/01/25 05:11:58;;;;;;;5.18;4.50;;;9.80;81.20;;;;;;6152840;23;20469;-80
2024/01/25 05:14:25;;;;;;;8.15;4.68;;;9.80;81.40;;;;;;6152482;23;20060;-78
2024/01/25 05:16:51;;;;;;;8.20;5.20;;;9.90;81.80;;;;;;6102973;23;20100;-80
2024/01/25 05:19:16;;;;;;;7.13;5.03;;;9.90;81.90;;;;;;6127709;23;20032;-79
2024/01/25 05:21:42;;;;;;;9.20;5.20;;;9.80;81.90;;;;;;6127883;23;20402;-80
2024/01/25 05:24:09;;;;;;;8.10;5.50;;;9.90;82.00;;;;;;6079181;23;20020;-79
2024/01/25 05:26:35;;;;;;;8.55;5.18;;;9.80;81.80;;;;;;6102673;23;20425;-79
2024/01/25 05:29:02;;;;;;;9.43;5.20;;;9.80;81.90;;;;;;6153372;23;20057;-80
2024/01/25 05:31:28;;;;;;;9.02;5.32;;;9.80;81.60;;;;;;6127829;23;20014;-80
2024/01/25 05:33:54;;;;;;;9.00;5.35;;;9.90;81.70;;;;;;6127882;23;20018;-80
2024/01/25 05:36:20;;;;;;;9.57;5.10;;;9.90;81.60;;;;;;6127585;23;20100;-79
2024/01/25 05:38:46;;;;;;;8.57;5.10;;;9.80;81.50;;;;;;6102716;23;20022;-80
2024/01/25 05:41:12;;;;;;;8.98;5.88;;;9.90;81.50;;;;;;6102280;23;20025;-80
2024/01/25 05:43:38;;;;;;;9.57;5.35;;;9.80;81.60;;;;;;6150960;23;20017;-80
2024/01/25 05:46:04;;;;;;;7.18;5.13;;;9.90;81.50;;;;;;6151552;23;20017;-80
2024/01/25 05:48:30;;;;;;;6.05;4.63;;;9.80;81.40;;;;;;6151801;23;20036;-80
2024/01/25 05:50:56;;;;;;;8.90;5.78;;;9.90;81.40;;;;;;6125330;23;20017;-80
2024/01/25 05:53:22;;;;;;;7.78;5.45;;;9.90;81.90;;;;;;6149767;23;20049;-80
2024/01/25 05:55:48;;;;;;;7.88;5.63;;;9.90;81.50;;;;;;6150435;23;20006;-79
2024/01/25 05:58:14;;;;;;;7.47;4.97;;;9.90;81.50;;;;;;6150901;23;20017;-80
2024/01/25 06:00:40;;;;;;;7.68;5.53;;;9.90;81.50;;;;;;6101131;23;20029;-80
2024/01/25 06:03:06;;;;;;;9.18;6.18;;;9.90;81.30;;;;;;6151848;23;20022;-78
2024/01/25 06:05:32;;;;;;;8.18;5.40;;;9.80;81.10;;;;;;6126193;23;20032;-79
2024/01/25 06:07:58;;;;;;;9.82;5.95;;;9.90;80.80;;;;;;6149922;23;20053;-81
2024/01/25 06:10:24;;;;;;;7.72;5.60;;;9.90;80.90;;;;;;6152185;23;20021;-79
2024/01/25 06:12:50;;;;;;;10.18;5.93;;;9.80;80.70;;;;;;6101519;23;20017;-79
2024/01/25 06:15:16;;;;;;;7.45;5.65;;;9.90;81.30;;;;;;6150939;23;20017;-79
2024/01/25 06:17:42;;;;;;;7.07;5.18;;;9.80;80.30;;;;;;6125655;23;20473;-80
2024/01/25 06:20:10;;;;;;;6.93;5.25;;;9.90;80.20;;;;;;6150161;23;20009;-79
2024/01/25 06:22:36;;;;;;;10.35;6.03;;;9.90;80.20;;;;;;6077796;23;20636;-80
2024/01/25 06:25:03;;;;;;;7.43;5.55;;;9.80;80.20;;;;;;6125772;23;20044;-80
2024/01/25 06:27:29;;;;;;;7.18;5.60;;;9.80;80.30;;;;;;6125884;23;20465;-79
2024/01/25 06:29:55;;;;;;;8.02;5.93;;;9.90;80.20;;;;;;6149896;23;20385;-79
2024/01/25 06:32:21;;;;;;;8.07;5.70;;;9.90;79.90;;;;;;6150095;23;20017;-81
2024/01/25 06:34:47;;;;;;;8.20;5.63;;;9.90;79.90;;;;;;6149945;23;20017;-79
2024/01/25 06:37:15;;;;;;;8.52;5.97;;;9.90;79.80;;;;;;6126070;23;20072;-80
2024/01/25 06:39:41;;;;;;;8.55;5.85;;;9.90;79.70;;;;;;6149630;23;20753;-79
2024/01/25 06:42:07;;;;;;;9.60;6.05;;;9.90;79.80;;;;;;6125507;23;20338;-79
2024/01/25 06:44:33;;;;;;;7.13;5.30;;;9.90;79.70;;;;;;6150438;23;20021;-79
2024/01/25 06:46:59;;;;;;;8.52;5.38;;;9.90;79.60;;;;;;6095695;23;1279978;-80
2024/01/25 06:49:26;;;;;;;7.20;5.47;;;9.90;79.40;;;;;;6153089;23;20009;-79
2024/01/25 06:51:52;;;;;;;9.60;5.88;;;9.90;79.30;;;;;;6150793;23;20479;-79
2024/01/25 06:54:18;;;;;;;8.55;5.28;;;9.90;79.20;;;;;;6151045;23;20462;-79
2024/01/25 06:56:44;;;;;;;8.85;5.57;;;9.90;79.20;;;;;;6151112;23;20027;-80
2024/01/25 06:59:10;;;;;;;9.55;6.18;;;9.80;79.00;;;;;;6152585;23;20028;-79
2024/01/25 07:01:36;;;;;;;7.57;5.28;;;9.90;79.00;;;;;;6126810;23;20162;-81
2024/01/25 07:04:03;;;;;;;7.53;5.22;;;9.90;78.90;;;;;;6151603;23;20014;-79
2024/01/25 07:06:29;;;;;;;9.05;5.13;;;9.90;78.90;;;;;;6102039;23;20465;-79
2024/01/25 07:08:55;;;;;;;7.30;5.43;;;9.90;78.70;;;;;;6126713;23;20457;-81
2024/01/25 07:11:21;;;;;;;8.45;5.82;;;9.90;78.70;;;;;;6101941;23;20037;-80
2024/01/25 07:13:48;;;;;;;8.52;5.32;;;9.90;78.60;;;;;;6152842;23;20040;-79
2024/01/25 07:16:13;;;;;;;8.45;5.53;;;9.90;78.60;;;;;;6151672;23;20126;-79
2024/01/25 07:18:39;;;;;;;8.15;5.38;;;9.90;78.70;;;;;;6102350;23;20462;-79
2024/01/25 07:21:05;;;;;;;7.47;5.53;;;9.90;78.70;;;;;;6153470;23;20013;-80
2024/01/25 07:23:34;;;;;;;7.45;5.40;;;9.90;78.50;;;;;;6153383;23;20021;-80
2024/01/25 07:26:00;;;;;;;7.82;5.68;;;9.90;78.50;;;;;;6155125;23;20016;-80
2024/01/25 07:28:26;;;;;;;7.13;5.07;;;9.90;78.50;;;;;;6155243;23;20037;-79
2024/01/25 07:30:52;;;;;;;7.50;5.68;;;9.90;78.30;;;;;;6103708;23;20022;-79
2024/01/25 07:33:18;;;;;;;6.20;5.00;;;9.90;78.20;;;;;;6128366;23;20017;-80
2024/01/25 07:35:47;;;;;;;8.75;5.70;;;9.90;78.20;;;;;;6154055;23;20091;-79
2024/01/25 07:38:15;;;;;;;7.63;5.18;;;9.90;78.20;;;;;;6152545;23;20346;-79
2024/01/25 07:40:41;;;;;;;9.07;5.78;;;9.90;78.10;;;;;;6154648;23;20017;-79
2024/01/25 07:43:07;;;;;;;8.05;5.57;;;9.90;77.80;;;;;;6154142;23;20072;-80
2024/01/25 07:45:33;;;;;;;8.05;5.43;;;9.90;77.80;;;;;;6128370;23;20055;-80
2024/01/25 07:47:59;;;;;;;8.43;5.60;;;9.90;77.70;;;;;;6152828;23;20156;-80
2024/01/25 07:50:26;;;;;;;8.27;5.68;;;9.90;77.70;;;;;;6128159;23;20093;-80
2024/01/25 07:52:53;;;;;;;10.95;6.47;;;9.90;77.60;;;;;;6103617;23;20398;-80
2024/01/25 07:55:19;;;;;;;9.13;5.07;;;9.90;77.70;;;;;;6128730;23;20014;-80
2024/01/25 07:57:45;;;;;;;8.27;5.78;;;9.90;77.20;;;;;;6154136;23;20519;-80
2024/01/25 08:00:11;;;;;;;7.70;5.30;;;10.00;77.30;;;;;;6154367;23;20025;-80
2024/01/25 08:02:41;;;;;;;8.45;5.90;;;10.00;77.10;;;;;;6152180;23;20040;-79
2024/01/25 08:05:07;;;;;;;8.50;5.57;;;9.90;77.00;;;;;;6127964;23;20026;-84
2024/01/25 08:07:33;;;;;;;7.90;5.53;;;10.00;76.80;;;;;;6103654;23;20097;-79
2024/01/25 08:09:59;;;;;;;7.47;5.30;;;10.00;76.80;;;;;;6127767;23;20045;-80
2024/01/25 08:12:26;;;;;;;7.13;4.78;;;10.00;76.90;;;;;;6152736;23;20520;-78
2024/01/25 08:14:52;;;;;;;6.60;5.20;;;10.00;76.90;;;;;;6126387;23;20023;-78
2024/01/25 08:17:19;;;;;;;8.55;5.60;;;10.00;76.70;;;;;;6126489;23;20041;-79
2024/01/25 08:19:46;;;;;;;6.80;5.07;;;10.00;76.60;;;;;;6128601;23;20006;-78
2024/01/25 08:22:12;;;;;;;8.05;4.90;;;9.90;76.60;;;;;;6153141;23;20024;-78
2024/01/25 08:24:41;;;;;;;7.65;5.13;;;10.00;76.80;;;;;;6153848;23;20024;-79
2024/01/25 08:27:07;;;;;;;8.40;5.40;;;10.00;76.60;;;;;;6153518;23;20461;-79
2024/01/25 08:29:34;;;;;;;6.07;4.50;;;10.00;76.70;;;;;;6151844;23;20489;-79
2024/01/25 08:32:00;;;;;;;7.93;5.03;;;10.00;76.60;;;;;;6153183;23;20009;-79
2024/01/25 08:34:26;;;;;;;7.45;5.15;;;10.00;76.70;;;;;;6103668;23;20029;-78
2024/01/25 08:36:52;;;;;;;7.38;5.05;;;10.00;76.60;;;;;;6153453;23;20357;-80
2024/01/25 08:39:18;;;;;;;7.07;5.15;;;10.00;76.60;;;;;;6153652;23;20449;-80
2024/01/25 08:41:45;;;;;;;6.90;5.25;;;10.00;76.60;;;;;;6126984;23;20143;-80
2024/01/25 08:44:11;;;;;;;7.90;5.28;;;10.00;76.60;;;;;;6152129;23;20048;-81
2024/01/25 08:46:38;;;;;;;8.10;4.93;;;10.00;76.50;;;;;;6152808;23;20039;-79
2024/01/25 08:49:08;;;;;;;6.78;4.85;;;10.10;76.30;;;;;;6153686;23;20021;-80
2024/01/25 08:51:34;;;;;;;7.15;4.88;;;10.00;76.10;;;;;;6125943;23;20021;-79
2024/01/25 08:54:00;;;;;;;7.90;5.35;;;10.10;76.30;;;;;;6127439;23;20049;-79
2024/01/25 08:56:26;;;;;;;7.65;5.55;;;10.10;76.10;;;;;;6125924;23;20105;-80
2024/01/25 08:58:52;;;;;;;7.55;4.80;;;10.10;76.10;;;;;;6151980;23;20052;-79
2024/01/25 09:01:18;;;;;;;6.40;4.80;;;10.10;76.10;;;;;;6153927;23;20394;-79
2024/01/25 09:03:44;;;;;;;7.88;5.32;;;10.10;76.10;;;;;;6153634;23;20052;-79
2024/01/25 09:06:11;;;;;;;6.68;5.07;;;10.10;76.20;;;;;;6151925;23;20025;-79
2024/01/25 09:08:37;;;;;;;7.90;4.88;;;10.10;75.90;;;;;;6152111;23;20017;-79
2024/01/25 09:11:03;;;;;;;6.68;4.95;;;10.00;75.70;;;;;;6152987;23;20492;-80
2024/01/25 09:13:29;;;;;;;7.38;5.35;;;10.10;75.80;;;;;;6153440;23;20022;-79
2024/01/25 09:15:56;;;;;;;6.68;5.30;;;10.10;75.40;;;;;;6153624;23;20017;-79
2024/01/25 09:18:22;;;;;;;8.73;5.22;;;10.10;75.50;;;;;;6153241;23;20045;-78
2024/01/25 09:20:48;;;;;;;5.82;4.45;;;10.10;75.50;;;;;;6102148;23;20464;-79
2024/01/25 09:23:17;;;;;;;7.28;5.38;;;10.00;75.30;;;;;;6151654;23;20036;-79
2024/01/25 09:25:44;;;;;;;6.75;5.05;;;10.00;75.40;;;;;;6127284;23;20024;-79
2024/01/25 09:28:14;;;;;;;9.07;5.32;;;10.10;75.00;;;;;;6126845;23;20026;-79
2024/01/25 09:30:41;;;;;;;6.75;5.00;;;10.10;75.00;;;;;;6126827;23;20021;-79
2024/01/25 09:33:07;;;;;;;6.95;5.30;;;10.10;75.00;;;;;;6102180;23;20021;-80
2024/01/25 09:35:33;;;;;;;6.95;5.05;;;10.00;75.00;;;;;;6126844;23;20053;-78
2024/01/25 09:37:59;;;;;;;7.63;5.15;;;10.10;74.90;;;;;;6152297;23;20532;-79
2024/01/25 09:40:25;;;;;;;8.38;5.22;;;10.10;74.70;;;;;;6152456;23;20037;-79
2024/01/25 09:42:52;;;;;;;9.10;6.05;;;10.10;74.70;;;;;;6125768;23;20025;-80
2024/01/25 09:45:19;;;;;;;7.63;5.60;;;10.10;74.60;;;;;;6125477;23;20052;-79
2024/01/25 09:47:46;;;;;;;7.75;5.68;;;10.10;74.40;;;;;;6151388;23;20033;-78
2024/01/25 09:50:12;;;;;;;9.25;5.40;;;10.10;74.60;;;;;;6151151;23;20009;-77
2024/01/25 09:52:39;;;;;;;12.88;6.25;;;10.10;74.60;;;;;;6150443;23;20130;-77
2024/01/25 09:55:17;;;;;;;7.55;5.40;;;10.10;74.70;;;;;;6149490;23;20350;-79
2024/01/25 09:57:46;;;;;;;7.00;4.85;;;10.10;74.80;;;;;;6151034;23;20028;-77
2024/01/25 10:00:13;;;;;;;8.02;5.55;;;10.10;74.80;;;;;;6149653;23;20041;-79
2024/01/25 10:02:39;;;;;;;9.05;5.43;;;10.10;74.80;;;;;;6150884;23;20405;-78
2024/01/25 10:05:06;;;;;;;8.93;5.72;;;10.10;74.60;;;;;;6123515;23;20016;-78
2024/01/25 10:07:39;;;;;;;8.68;5.68;;;10.10;74.70;;;;;;6151493;23;20388;-79
2024/01/25 10:10:06;;;;;;;7.03;5.18;;;10.10;74.60;;;;;;6151924;23;20029;-78
2024/01/25 10:12:33;;;;;;;8.05;5.25;;;10.10;74.40;;;;;;6152358;23;20080;-79
2024/01/25 10:14:59;;;;;;;5.82;4.70;;;10.10;74.60;;;;;;6125178;23;20017;-79
2024/01/25 10:17:25;;;;;;;9.38;6.10;;;10.10;74.40;;;;;;6126371;23;20029;-79
2024/01/25 10:19:52;;;;;;;8.43;5.70;;;10.10;74.40;;;;;;6150926;23;20013;-78
2024/01/25 10:22:18;;;;;;;6.97;5.10;;;10.10;74.40;;;;;;6151289;23;20021;-80
2024/01/25 10:24:44;;;;;;;7.20;5.57;;;10.10;74.40;;;;;;6151230;23;20473;-78
2024/01/25 10:27:12;;;;;;;7.43;5.20;;;10.10;74.30;;;;;;6150540;23;20377;-79
2024/01/25 10:29:38;;;;;;;7.63;5.75;;;10.10;74.40;;;;;;6150182;23;20028;-79
2024/01/25 10:32:05;;;;;;;7.63;5.50;;;10.10;74.50;;;;;;6149733;23;20091;-79
2024/01/25 10:34:32;;;;;;;7.47;4.93;;;10.10;74.60;;;;;;6151033;23;20071;-80
2024/01/25 10:37:17;;;;;;;9.17;5.47;;;10.10;74.60;;;;;;6124619;23;20696;-79
2024/01/25 10:39:45;;;;;;;7.90;5.10;;;10.10;74.60;;;;;;6149033;23;20275;-80
2024/01/25 10:42:11;;;;;;;6.05;4.80;;;10.10;74.50;;;;;;6148435;23;20492;-79
2024/01/25 10:44:37;;;;;;;6.70;5.18;;;10.10;74.60;;;;;;6150577;23;20069;-78
2024/01/25 10:47:05;;;;;;;7.35;5.20;;;10.10;74.40;;;;;;6149681;23;20024;-77
2024/01/25 10:49:32;;;;;;;6.70;4.85;;;10.10;74.40;;;;;;6124757;23;20021;-79
2024/01/25 10:51:58;;;;;;;6.50;5.22;;;10.10;74.40;;;;;;6150510;23;20108;-78
2024/01/25 10:54:25;;;;;;;7.53;4.95;;;10.10;74.40;;;;;;6150265;23;20370;-77
2024/01/25 10:56:53;;;;;;;6.35;5.00;;;10.10;74.60;;;;;;6149437;23;20056;-78
2024/01/25 10:59:19;;;;;;;8.10;5.70;;;10.10;74.60;;;;;;6149254;23;20101;-78
2024/01/25 11:01:46;;;;;;;7.45;5.03;;;10.10;74.60;;;;;;6151050;23;20489;-79
2024/01/25 11:04:13;;;;;;;8.32;5.20;;;10.10;74.60;;;;;;6150332;23;20144;-79
2024/01/25 11:06:39;;;;;;;6.50;5.00;;;10.10;74.70;;;;;;6149259;23;20115;-79
2024/01/25 11:09:06;;;;;;;6.00;5.00;;;10.10;74.70;;;;;;6150348;23;20014;-78
2024/01/25 11:11:32;;;;;;;7.47;5.80;;;10.10;75.30;;;;;;6150135;23;20109;-79
2024/01/25 11:13:59;;;;;;;7.07;5.20;;;10.20;74.80;;;;;;6149889;23;20013;-77
2024/01/25 11:16:31;;;;;;;6.53;4.90;;;10.10;74.70;;;;;;6149732;23;20309;-80
2024/01/25 11:19:04;;;;;;;6.45;5.20;;;10.10;74.60;;;;;;6149408;23;20017;-79
2024/01/25 11:21:45;;;;;;;5.85;4.53;;;10.20;74.60;;;;;;6150784;23;20113;-78
2024/01/25 11:24:22;;;;;;;6.32;5.30;;;10.10;74.60;;;;;;6125876;23;20650;-78
2024/01/25 11:26:49;;;;;;;7.40;5.20;;;10.10;74.40;;;;;;6152554;23;20021;-78
2024/01/25 11:29:22;;;;;;;7.80;5.40;;;10.10;74.40;;;;;;6126182;23;20462;-79
2024/01/25 11:31:50;;;;;;;6.85;5.30;;;10.10;74.30;;;;;;6126027;23;20014;-78
2024/01/25 11:34:17;;;;;;;6.95;4.93;;;10.10;74.40;;;;;;6102318;23;20468;-79
2024/01/25 11:36:44;;;;;;;6.45;5.35;;;10.20;74.30;;;;;;6151803;23;20024;-76
2024/01/25 11:39:12;;;;;;;7.88;5.50;;;10.10;74.20;;;;;;6152057;23;20104;-77
2024/01/25 11:41:38;;;;;;;7.53;5.35;;;10.10;74.10;;;;;;6125245;23;20021;-78
2024/01/25 11:44:04;;;;;;;7.00;5.38;;;10.20;74.10;;;;;;6151677;23;20009;-78
2024/01/25 11:46:31;;;;;;;9.25;6.05;;;10.20;73.90;;;;;;6152651;23;20018;-78
2024/01/25 11:49:00;;;;;;;7.35;5.40;;;10.10;73.90;;;;;;6151593;23;20105;-79
2024/01/25 11:51:26;;;;;;;9.52;5.82;;;10.10;73.70;;;;;;6151479;23;20233;-77
2024/01/25 11:53:52;;;;;;;7.43;5.38;;;10.10;73.70;;;;;;6151419;23;20013;-78
2024/01/25 11:56:26;;;;;;;7.47;4.97;;;10.10;73.80;;;;;;6150286;23;20096;-78
2024/01/25 11:58:53;;;;;;;7.88;5.75;;;10.10;73.70;;;;;;6151221;23;20009;-78
2024/01/25 12:01:20;;;;;;;7.32;5.85;;;10.10;73.60;;;;;;6152036;23;20013;-78
2024/01/25 12:03:46;;;;;;;7.63;5.50;;;10.10;73.40;;;;;;6150051;23;20026;-78
2024/01/25 12:06:12;;;;;;;10.15;5.32;;;10.10;73.20;;;;;;6151896;23;20017;-79
2024/01/25 12:08:38;;;;;;;7.50;5.43;;;10.10;73.30;;;;;;6127673;23;20096;-78
2024/01/25 12:11:06;;;;;;;8.13;5.65;;;10.10;73.30;;;;;;6153307;23;20130;-77
2024/01/25 12:13:38;;;;;;;7.65;5.68;;;10.10;73.20;;;;;;6127778;23;20612;-78
2024/01/25 12:16:04;;;;;;;8.38;5.10;;;10.10;73.10;;;;;;6153253;23;20116;-78
2024/01/25 12:18:32;;;;;;;7.57;5.43;;;10.10;73.10;;;;;;6153301;23;20052;-77
2024/01/25 12:21:02;;;;;;;7.22;5.40;;;10.10;73.10;;;;;;6153260;23;20051;-78
2024/01/25 12:23:39;;;;;;;7.93;5.35;;;10.10;73.10;;;;;;6127190;23;20025;-78
2024/01/25 12:26:07;;;;;;;7.57;5.55;;;10.10;73.20;;;;;;6102268;23;20500;-77
2024/01/25 12:28:35;;;;;;;8.75;5.53;;;10.10;73.10;;;;;;6154074;23;20349;-80
2024/01/25 12:31:05;;;;;;;8.23;5.75;;;10.10;72.70;;;;;;6126205;23;20021;-81
2024/01/25 12:33:33;;;;;;;7.45;5.38;;;10.10;72.90;;;;;;6152717;23;20017;-81
2024/01/25 12:35:59;;;;;;;7.15;5.50;;;10.10;72.90;;;;;;6127586;23;20025;-81
2024/01/25 12:38:26;;;;;;;7.15;5.43;;;10.10;72.90;;;;;;6153389;23;20025;-81
2024/01/25 12:40:52;;;;;;;7.65;4.97;;;10.10;72.90;;;;;;6127406;23;20369;-81
2024/01/25 12:43:21;;;;;;;7.97;5.63;;;10.10;73.00;;;;;;6127410;23;20009;-81
2024/01/25 12:45:47;;;;;;;8.10;5.65;;;10.10;72.90;;;;;;6127094;23;20469;-80
2024/01/25 12:48:13;;;;;;;8.20;5.57;;;10.10;73.00;;;;;;6151874;23;20061;-81
2024/01/25 12:50:40;;;;;;;8.90;6.47;;;10.10;72.90;;;;;;6127541;23;20037;-81